Time;durP1;ratioP1;P1;durP2;ratioP2;P2;SDS_P1;SDS_P2;PMS_P1;PMS_P2;Temp;Humidity;BMP_temperature;BMP_pressure;BME280_temperature;BME280_humidity;BME280_pressure;Samples;Min_cycle;Max_cycle;Signal;HPM_P1;HPM_P2
2022/01/08 00:00:28;;;;;;;2.77;2.10;;;6.60;57.60;;;;;;5109099;28;20279;-51
2022/01/08 00:02:54;;;;;;;3.00;1.83;;;6.50;57.90;;;;;;5106461;28;20873;-53
2022/01/08 00:05:20;;;;;;;2.10;1.70;;;6.50;58.30;;;;;;5103985;28;20801;-55
2022/01/08 00:07:46;;;;;;;2.53;2.00;;;6.50;58.50;;;;;;5109978;28;20424;-54
2022/01/08 00:10:12;;;;;;;2.30;2.03;;;6.70;58.30;;;;;;5110982;28;20497;-56
2022/01/08 00:12:38;;;;;;;2.57;2.20;;;6.90;57.80;;;;;;5109109;28;20195;-55
2022/01/08 00:15:05;;;;;;;3.70;1.90;;;7.10;57.40;;;;;;5107265;28;20442;-54
2022/01/08 00:17:31;;;;;;;3.57;2.30;;;7.30;57.00;;;;;;5106501;28;20447;-53
2022/01/08 00:19:57;;;;;;;2.83;2.00;;;7.40;56.90;;;;;;5104180;28;20951;-55
2022/01/08 00:22:22;;;;;;;4.63;2.33;;;7.20;56.60;;;;;;5107919;28;20464;-54
2022/01/08 00:24:52;;;;;;;2.57;2.00;;;7.20;56.80;;;;;;5100999;28;20206;-53
2022/01/08 00:27:21;;;;;;;3.80;2.20;;;7.20;56.90;;;;;;5102731;28;20191;-53
2022/01/08 00:29:47;;;;;;;3.77;1.97;;;7.00;57.20;;;;;;5108584;28;20470;-55
2022/01/08 00:32:14;;;;;;;2.30;1.87;;;6.70;57.70;;;;;;5104648;28;20573;-52
2022/01/08 00:34:41;;;;;;;2.50;2.00;;;6.60;58.50;;;;;;5111354;28;20429;-52
2022/01/08 00:37:07;;;;;;;2.40;1.90;;;6.50;58.30;;;;;;5104047;28;20450;-53
2022/01/08 00:39:33;;;;;;;4.07;2.30;;;6.30;58.60;;;;;;5105826;28;20464;-53
2022/01/08 00:41:59;;;;;;;2.43;1.70;;;6.30;58.70;;;;;;5102220;28;20195;-55
2022/01/08 00:44:25;;;;;;;3.23;2.00;;;6.20;58.80;;;;;;5110559;28;20493;-54
2022/01/08 00:46:50;;;;;;;3.37;1.30;;;6.20;58.60;;;;;;5106241;28;20453;-55
2022/01/08 00:49:16;;;;;;;2.30;1.43;;;6.00;58.80;;;;;;5098443;28;20282;-53
2022/01/08 00:51:42;;;;;;;2.17;1.70;;;6.00;59.30;;;;;;5110163;28;20561;-54
2022/01/08 00:54:07;;;;;;;1.70;1.60;;;6.20;58.60;;;;;;5101092;28;20190;-55
2022/01/08 00:56:33;;;;;;;1.80;1.57;;;6.50;58.40;;;;;;5108047;28;20673;-53
2022/01/08 00:58:58;;;;;;;2.30;1.33;;;6.60;57.90;;;;;;5105432;28;20197;-54
2022/01/08 01:01:24;;;;;;;2.10;1.60;;;6.40;57.90;;;;;;5099375;28;20225;-51
2022/01/08 01:03:50;;;;;;;1.60;1.40;;;6.40;58.20;;;;;;5104803;28;20564;-55
2022/01/08 01:06:15;;;;;;;2.13;1.80;;;6.10;58.70;;;;;;5097772;28;20196;-54
2022/01/08 01:08:41;;;;;;;2.13;1.93;;;6.20;59.10;;;;;;5097582;28;20191;-52
2022/01/08 01:11:07;;;;;;;1.67;1.37;;;5.90;59.00;;;;;;5095011;28;20199;-54
2022/01/08 01:13:32;;;;;;;2.53;1.63;;;5.90;59.40;;;;;;5101734;28;20571;-51
2022/01/08 01:15:58;;;;;;;2.20;2.00;;;5.90;59.60;;;;;;5105939;28;20202;-55
2022/01/08 01:18:24;;;;;;;1.50;1.30;;;5.70;59.80;;;;;;5092378;28;20191;-52
2022/01/08 01:20:50;;;;;;;1.97;1.53;;;6.00;60.40;;;;;;5101611;28;20230;-55
2022/01/08 01:23:21;;;;;;;1.67;1.57;;;6.00;59.70;;;;;;5109924;28;20664;-52
2022/01/08 01:25:54;;;;;;;2.33;1.80;;;5.90;59.80;;;;;;5109371;28;20797;-52
2022/01/08 01:47:03;;;;;;;1.30;1.20;;;6.70;58.70;;;;;;5100650;28;20518;-51
2022/01/08 01:49:34;;;;;;;2.90;1.50;;;7.00;57.90;;;;;;5095838;28;20654;-51
2022/01/08 01:52:01;;;;;;;2.97;1.60;;;7.10;57.90;;;;;;5103234;28;20826;-52
2022/01/08 01:54:30;;;;;;;1.40;1.20;;;7.00;57.80;;;;;;5108727;28;20447;-52
2022/01/08 01:56:57;;;;;;;1.67;1.57;;;6.90;58.50;;;;;;5100793;28;20433;-51
2022/01/08 01:59:27;;;;;;;2.73;1.90;;;6.80;58.50;;;;;;5105906;28;20769;-51
2022/01/08 02:01:53;;;;;;;3.33;2.00;;;6.70;58.60;;;;;;5097927;28;20437;-53
2022/01/08 02:04:19;;;;;;;2.37;1.50;;;6.50;59.20;;;;;;5099632;28;20502;-51
2022/01/08 02:06:45;;;;;;;2.80;1.73;;;6.50;59.30;;;;;;5112772;28;20444;-51
2022/01/08 02:09:11;;;;;;;1.73;1.50;;;6.20;59.60;;;;;;5108886;28;20950;-51
2022/01/08 02:12:02;;;;;;;1.73;1.63;;;6.00;60.90;;;;;;5110493;28;20211;-52
2022/01/08 02:14:29;;;;;;;2.07;1.30;;;6.10;60.80;;;;;;5113848;28;20199;-51
2022/01/08 02:16:56;;;;;;;1.60;1.50;;;6.10;60.80;;;;;;5113141;28;21105;-52
2022/01/08 02:19:22;;;;;;;1.50;1.40;;;6.20;60.70;;;;;;5110608;28;20432;-52
2022/01/08 02:22:00;;;;;;;2.40;1.40;;;6.20;60.70;;;;;;5106029;28;20459;-53
2022/01/08 02:24:26;;;;;;;1.63;1.27;;;6.30;60.60;;;;;;5101904;28;20773;-52
2022/01/08 02:26:53;;;;;;;2.57;1.60;;;6.20;60.90;;;;;;5107987;28;20488;-52
2022/01/08 02:29:20;;;;;;;2.63;1.50;;;6.40;60.70;;;;;;5111980;28;20480;-51
2022/01/08 02:31:57;;;;;;;2.23;1.63;;;6.30;60.80;;;;;;5113124;28;20432;-53
2022/01/08 02:34:23;;;;;;;3.17;1.87;;;6.30;60.90;;;;;;5106285;28;20463;-51
2022/01/08 02:36:49;;;;;;;2.07;1.87;;;6.30;60.80;;;;;;5100519;28;20935;-54
2022/01/08 02:39:14;;;;;;;2.80;1.60;;;6.10;61.60;;;;;;5109929;28;20523;-51
2022/01/08 02:41:40;;;;;;;1.73;1.57;;;6.00;62.00;;;;;;5110739;28;20198;-51
2022/01/08 02:44:07;;;;;;;2.97;1.87;;;6.00;62.40;;;;;;5102815;28;20571;-52
2022/01/08 02:46:33;;;;;;;2.57;1.90;;;6.30;62.30;;;;;;5096656;28;20928;-51
2022/01/08 02:48:58;;;;;;;2.00;1.57;;;6.60;61.50;;;;;;5112904;28;20464;-52
2022/01/08 02:51:24;;;;;;;2.80;1.80;;;6.60;61.20;;;;;;5106517;28;20556;-52
2022/01/08 02:53:51;;;;;;;2.07;1.90;;;6.70;61.00;;;;;;5105175;28;20649;-51
2022/01/08 02:56:17;;;;;;;4.23;1.43;;;6.60;60.90;;;;;;5096152;28;20436;-53
2022/01/08 02:58:43;;;;;;;3.00;1.80;;;6.60;60.90;;;;;;5101516;28;20433;-54
2022/01/08 03:01:08;;;;;;;3.47;1.67;;;6.80;61.00;;;;;;5110315;28;20898;-53
2022/01/08 03:03:34;;;;;;;3.27;1.90;;;6.70;60.30;;;;;;5102451;28;20285;-53
2022/01/08 03:05:59;;;;;;;1.80;1.70;;;6.60;60.90;;;;;;5102832;28;20203;-54
2022/01/08 03:08:26;;;;;;;2.40;1.70;;;6.80;60.70;;;;;;5110592;28;20199;-51
2022/01/08 03:10:52;;;;;;;2.53;1.77;;;7.00;60.20;;;;;;5110258;28;20191;-53
2022/01/08 03:13:18;;;;;;;3.03;1.90;;;7.20;59.50;;;;;;5109063;28;20472;-55
2022/01/08 03:15:44;;;;;;;2.70;1.93;;;7.40;59.20;;;;;;5108574;28;20479;-55
2022/01/08 03:18:09;;;;;;;2.30;1.70;;;7.60;58.60;;;;;;5106150;28;20205;-55
2022/01/08 03:20:43;;;;;;;2.10;1.90;;;7.60;58.20;;;;;;5104560;28;20233;-54
2022/01/08 03:23:14;;;;;;;2.20;1.90;;;7.60;57.90;;;;;;5102327;28;20183;-55
2022/01/08 03:25:40;;;;;;;2.30;1.70;;;7.70;57.80;;;;;;5106951;28;20933;-54
2022/01/08 03:28:05;;;;;;;4.20;2.10;;;7.90;57.60;;;;;;5108443;28;20458;-54
2022/01/08 03:30:31;;;;;;;3.80;2.30;;;7.90;57.00;;;;;;5109506;28;20205;-53
2022/01/08 03:32:56;;;;;;;6.37;2.33;;;8.10;57.00;;;;;;5111481;28;20191;-55
2022/01/08 03:35:22;;;;;;;3.10;1.70;;;8.20;56.40;;;;;;5108488;28;20203;-53
2022/01/08 03:37:48;;;;;;;2.20;1.63;;;8.10;56.30;;;;;;5107731;28;20282;-55
2022/01/08 03:40:14;;;;;;;3.77;1.83;;;7.90;56.70;;;;;;5107562;28;20706;-55
2022/01/08 03:42:39;;;;;;;1.40;1.30;;;8.00;56.90;;;;;;5110863;28;20238;-55
2022/01/08 03:45:05;;;;;;;1.40;1.30;;;8.10;56.80;;;;;;5111262;28;20196;-55
2022/01/08 03:47:53;;;;;;;1.30;1.20;;;8.00;56.80;;;;;;5103507;28;20631;-52
2022/01/08 03:50:17;;;;;;;1.83;1.00;;;8.10;57.20;;;;;;5108281;28;20432;-54
2022/01/08 03:52:44;;;;;;;0.90;0.90;;;7.90;57.30;;;;;;5109208;28;20440;-55
2022/01/08 03:55:10;;;;;;;1.23;1.10;;;7.80;58.20;;;;;;5110689;28;20194;-54
2022/01/08 03:57:35;;;;;;;2.60;1.13;;;7.80;58.90;;;;;;5105347;28;20904;-54
2022/01/08 04:00:02;;;;;;;1.10;1.00;;;7.70;59.10;;;;;;5109289;28;20214;-54
2022/01/08 04:02:28;;;;;;;1.20;1.10;;;7.60;59.70;;;;;;5109243;28;20218;-55
2022/01/08 04:04:53;;;;;;;1.17;0.90;;;7.40;60.50;;;;;;5110427;28;20463;-53
2022/01/08 04:07:19;;;;;;;1.67;0.97;;;7.50;61.30;;;;;;5107678;28;20194;-54
2022/01/08 04:09:45;;;;;;;1.00;1.00;;;7.70;61.30;;;;;;5107226;28;20182;-55
2022/01/08 04:12:15;;;;;;;1.33;1.20;;;7.80;61.40;;;;;;5108023;28;20183;-54
2022/01/08 04:14:54;;;;;;;1.30;0.97;;;7.50;61.80;;;;;;5105598;28;20444;-54
2022/01/08 04:17:20;;;;;;;1.23;1.13;;;7.30;62.80;;;;;;5110264;28;20428;-55
2022/01/08 04:19:46;;;;;;;2.03;1.00;;;7.50;63.60;;;;;;5101505;28;20480;-56
2022/01/08 04:22:13;;;;;;;1.10;1.00;;;7.30;63.80;;;;;;5101366;28;20199;-54
2022/01/08 04:24:42;;;;;;;2.10;1.10;;;7.30;64.30;;;;;;5110314;28;20537;-55
2022/01/08 04:27:08;;;;;;;1.07;0.97;;;7.30;64.30;;;;;;5109845;28;20425;-55
2022/01/08 04:29:33;;;;;;;2.10;1.10;;;7.30;64.40;;;;;;5108861;28;20483;-55
2022/01/08 04:31:59;;;;;;;1.23;1.13;;;7.20;64.40;;;;;;5107565;28;20191;-53
2022/01/08 04:34:26;;;;;;;2.87;1.67;;;7.30;64.10;;;;;;5109056;28;20247;-53
2022/01/08 04:36:51;;;;;;;1.30;1.20;;;7.20;64.10;;;;;;5106066;28;20653;-55
2022/01/08 04:39:17;;;;;;;1.23;1.10;;;7.50;63.90;;;;;;5108023;28;20452;-55
2022/01/08 04:41:43;;;;;;;1.40;1.30;;;7.40;63.40;;;;;;5107740;28;20227;-52
2022/01/08 04:44:09;;;;;;;1.40;1.30;;;7.40;64.00;;;;;;5102125;28;20295;-55
2022/01/08 04:46:35;;;;;;;1.30;1.20;;;7.30;63.50;;;;;;5105056;28;20593;-52
2022/01/08 04:49:00;;;;;;;1.50;1.30;;;7.20;63.80;;;;;;5100186;28;20428;-51
2022/01/08 04:51:26;;;;;;;1.20;1.10;;;7.10;64.30;;;;;;5105364;28;20187;-52
2022/01/08 04:53:51;;;;;;;1.30;1.20;;;7.00;64.60;;;;;;5110448;28;20187;-50
2022/01/08 04:56:17;;;;;;;1.23;1.13;;;7.00;65.10;;;;;;5107758;28;20198;-52
2022/01/08 04:58:43;;;;;;;1.17;1.07;;;7.00;65.40;;;;;;5109265;28;20230;-51
2022/01/08 05:01:13;;;;;;;1.40;1.30;;;6.90;65.80;;;;;;5107026;28;20223;-51
2022/01/08 05:03:38;;;;;;;2.23;1.70;;;7.00;66.10;;;;;;5110432;28;20615;-51
2022/01/08 05:06:04;;;;;;;1.80;1.70;;;6.90;67.00;;;;;;5110027;28;20508;-52
2022/01/08 05:08:29;;;;;;;2.13;1.37;;;6.70;67.40;;;;;;5101937;28;20588;-54
2022/01/08 05:10:55;;;;;;;1.50;1.40;;;6.90;67.70;;;;;;5093043;28;20278;-52
2022/01/08 05:13:21;;;;;;;1.53;1.40;;;6.70;68.20;;;;;;5102388;28;20191;-52
2022/01/08 05:15:46;;;;;;;1.77;1.67;;;6.60;68.90;;;;;;5097984;28;20194;-53
2022/01/08 05:18:12;;;;;;;1.47;1.37;;;6.40;69.20;;;;;;5109131;28;20202;-53
2022/01/08 05:20:41;;;;;;;1.43;1.33;;;6.30;70.80;;;;;;5105827;28;20226;-55
2022/01/08 05:23:07;;;;;;;1.50;1.40;;;6.30;70.90;;;;;;5095774;28;20555;-52
2022/01/08 05:25:33;;;;;;;2.50;1.20;;;6.40;71.20;;;;;;5108261;28;20444;-55
2022/01/08 05:27:59;;;;;;;1.47;1.30;;;6.50;71.10;;;;;;5109969;28;20882;-56
2022/01/08 05:30:27;;;;;;;2.30;0.90;;;6.30;71.20;;;;;;5108700;28;20955;-55
2022/01/08 05:32:53;;;;;;;1.67;1.10;;;6.20;71.70;;;;;;5107580;28;20436;-52
2022/01/08 05:35:20;;;;;;;1.30;1.10;;;6.40;71.90;;;;;;5105543;28;20429;-52
2022/01/08 05:37:46;;;;;;;1.83;0.90;;;6.30;71.60;;;;;;5108553;28;20919;-52
2022/01/08 05:40:13;;;;;;;1.00;0.93;;;6.60;71.50;;;;;;5115208;28;20559;-52
2022/01/08 05:42:41;;;;;;;1.60;1.10;;;6.80;70.80;;;;;;5105465;28;20251;-55
2022/01/08 05:45:08;;;;;;;1.70;1.10;;;6.70;70.30;;;;;;5111208;28;20467;-53
2022/01/08 05:47:34;;;;;;;1.30;1.20;;;6.70;70.80;;;;;;5112626;28;20804;-52
2022/01/08 05:50:00;;;;;;;1.97;1.10;;;6.80;70.10;;;;;;5109857;28;20432;-56
2022/01/08 05:52:26;;;;;;;1.50;1.13;;;6.80;70.80;;;;;;5101718;28;20431;-55
2022/01/08 05:54:51;;;;;;;1.13;1.03;;;7.00;70.50;;;;;;5105494;28;20201;-54
2022/01/08 05:57:17;;;;;;;1.63;1.53;;;7.00;70.10;;;;;;5113779;28;20194;-52
2022/01/08 05:59:43;;;;;;;1.47;1.10;;;7.00;69.70;;;;;;5111328;28;20278;-53
2022/01/08 06:02:09;;;;;;;1.37;1.27;;;7.10;69.80;;;;;;5099328;28;20207;-53
2022/01/08 06:04:35;;;;;;;2.70;0.87;;;7.20;69.10;;;;;;5109634;28;20195;-52
2022/01/08 06:07:01;;;;;;;3.30;3.00;;;7.00;68.80;;;;;;5112670;28;20795;-52
2022/01/08 06:09:27;;;;;;;0.97;0.97;;;6.90;69.60;;;;;;5106425;28;20431;-53
2022/01/08 06:11:52;;;;;;;2.10;0.90;;;6.50;69.90;;;;;;5106928;28;20214;-52
2022/01/08 06:14:18;;;;;;;0.60;0.60;;;6.50;71.00;;;;;;5100590;28;20234;-54
2022/01/08 06:16:43;;;;;;;1.90;1.00;;;6.40;71.30;;;;;;5108070;28;20187;-51
2022/01/08 06:19:11;;;;;;;0.60;0.60;;;6.40;72.00;;;;;;5102906;28;20207;-52
2022/01/08 06:21:37;;;;;;;1.20;1.10;;;6.40;72.20;;;;;;5112600;28;20309;-51
2022/01/08 06:24:03;;;;;;;2.03;1.83;;;6.30;72.50;;;;;;5110877;27;20519;-53
2022/01/08 06:26:29;;;;;;;1.10;1.00;;;6.30;71.30;;;;;;5113011;28;20432;-51
2022/01/08 06:28:55;;;;;;;2.30;2.00;;;5.90;70.50;;;;;;5095459;28;20480;-55
2022/01/08 06:31:22;;;;;;;8.73;6.40;;;5.70;72.40;;;;;;5108925;28;20246;-54
2022/01/08 06:33:48;;;;;;;7.30;4.23;;;5.90;71.50;;;;;;5106823;28;20323;-55
2022/01/08 06:36:17;;;;;;;6.87;4.67;;;5.90;70.80;;;;;;5113107;28;20474;-54
2022/01/08 06:38:43;;;;;;;7.23;4.67;;;5.80;71.00;;;;;;5111281;28;20440;-54
2022/01/08 06:41:09;;;;;;;4.80;4.13;;;5.90;71.30;;;;;;5106226;28;20534;-52
2022/01/08 06:43:35;;;;;;;2.53;2.20;;;5.80;71.60;;;;;;5107289;28;20432;-55
2022/01/08 06:46:01;;;;;;;2.80;2.60;;;5.80;72.00;;;;;;5107803;28;20185;-53
2022/01/08 06:48:26;;;;;;;1.63;1.53;;;5.60;72.20;;;;;;5106632;28;20266;-52
2022/01/08 06:50:52;;;;;;;2.00;1.90;;;5.60;73.00;;;;;;5103981;28;20811;-52
2022/01/08 06:53:17;;;;;;;1.00;0.90;;;5.70;72.80;;;;;;5103774;28;20191;-54
2022/01/08 06:55:43;;;;;;;0.70;0.70;;;5.60;72.30;;;;;;5105082;28;20187;-55
2022/01/08 06:58:09;;;;;;;4.03;0.80;;;5.70;72.60;;;;;;5108374;28;20317;-54
2022/01/08 07:00:35;;;;;;;0.70;0.70;;;6.00;71.60;;;;;;5102970;28;20476;-53
2022/01/08 07:03:01;;;;;;;0.90;0.77;;;6.00;71.20;;;;;;5108734;28;20527;-53
2022/01/08 07:05:26;;;;;;;1.30;1.00;;;6.10;70.50;;;;;;5099075;28;20195;-53
2022/01/08 07:07:52;;;;;;;1.33;1.03;;;6.00;70.10;;;;;;5104559;28;20234;-54
2022/01/08 07:10:18;;;;;;;0.73;0.73;;;6.00;69.70;;;;;;5109953;28;20202;-54
2022/01/08 07:12:43;;;;;;;1.33;1.23;;;5.70;70.00;;;;;;5106655;28;20673;-51
2022/01/08 07:15:09;;;;;;;1.73;0.90;;;5.70;70.70;;;;;;5101525;28;20195;-51
2022/01/08 07:17:35;;;;;;;0.80;0.80;;;5.70;70.70;;;;;;5102350;28;20188;-52
2022/01/08 07:20:00;;;;;;;0.80;0.70;;;5.90;70.40;;;;;;5107665;28;20490;-54
2022/01/08 07:22:28;;;;;;;2.03;1.20;;;6.00;69.80;;;;;;5110679;28;20187;-54
2022/01/08 07:24:53;;;;;;;1.17;1.07;;;6.00;69.10;;;;;;5101695;28;20190;-54
2022/01/08 07:27:19;;;;;;;1.20;1.10;;;6.00;68.90;;;;;;5104229;28;20438;-53
2022/01/08 07:29:44;;;;;;;1.63;1.43;;;6.10;68.90;;;;;;5107492;28;20252;-52
2022/01/08 07:32:10;;;;;;;1.40;1.30;;;5.90;68.80;;;;;;5108312;28;20269;-53
2022/01/08 07:34:36;;;;;;;1.47;1.37;;;5.90;68.60;;;;;;5101180;28;20194;-52
2022/01/08 07:37:01;;;;;;;1.40;1.30;;;6.10;68.80;;;;;;5101529;28;20194;-54
2022/01/08 07:39:27;;;;;;;1.53;1.40;;;6.20;68.10;;;;;;5098775;28;20191;-54
2022/01/08 07:41:52;;;;;;;2.53;1.07;;;6.20;67.30;;;;;;5093924;28;20198;-50
2022/01/08 07:44:18;;;;;;;1.50;1.30;;;6.20;67.50;;;;;;5098014;28;20317;-51
2022/01/08 07:46:44;;;;;;;1.40;1.30;;;6.20;67.10;;;;;;5101128;28;20188;-51
2022/01/08 07:49:09;;;;;;;2.07;1.30;;;6.20;66.70;;;;;;5099776;28;20434;-53
2022/01/08 07:51:35;;;;;;;1.60;1.33;;;6.20;66.80;;;;;;5102373;28;20271;-54
2022/01/08 07:54:01;;;;;;;1.77;1.67;;;6.30;66.60;;;;;;5095995;28;20313;-53
2022/01/08 07:56:26;;;;;;;2.63;1.67;;;6.40;66.60;;;;;;5098093;28;20213;-52
2022/01/08 07:58:52;;;;;;;3.83;2.00;;;6.50;66.60;;;;;;5104435;28;20202;-53
2022/01/08 08:01:18;;;;;;;2.30;2.10;;;6.60;66.80;;;;;;5099296;28;20240;-54
2022/01/08 08:03:43;;;;;;;2.33;2.13;;;6.50;67.00;;;;;;5103807;28;20198;-52
2022/01/08 08:06:10;;;;;;;6.70;2.20;;;6.40;67.90;;;;;;5102136;28;20203;-50
2022/01/08 08:08:36;;;;;;;3.50;2.50;;;6.50;68.20;;;;;;5106100;28;20195;-50
2022/01/08 08:11:02;;;;;;;2.90;2.30;;;6.50;68.20;;;;;;5094412;28;20502;-53
2022/01/08 08:13:27;;;;;;;2.37;2.17;;;6.70;68.20;;;;;;5100347;28;20195;-50
2022/01/08 08:15:53;;;;;;;2.93;2.70;;;6.70;68.10;;;;;;5091467;28;20448;-50
2022/01/08 08:18:19;;;;;;;2.73;2.53;;;6.50;68.40;;;;;;5092163;28;20191;-50
2022/01/08 08:20:44;;;;;;;3.60;2.27;;;6.50;69.00;;;;;;5091279;28;20223;-50
2022/01/08 08:23:10;;;;;;;3.70;2.53;;;6.60;68.60;;;;;;5098412;28;20248;-51
2022/01/08 08:25:35;;;;;;;2.83;2.53;;;6.80;67.90;;;;;;5105259;28;20227;-52
2022/01/08 08:28:04;;;;;;;2.70;2.50;;;7.00;67.30;;;;;;5100907;28;20179;-50
2022/01/08 08:30:30;;;;;;;2.73;2.53;;;7.10;66.80;;;;;;5100075;28;20558;-51
2022/01/08 08:32:56;;;;;;;3.10;2.60;;;7.30;66.10;;;;;;5101132;28;20421;-51
2022/01/08 08:35:21;;;;;;;3.87;3.50;;;7.50;65.80;;;;;;5095003;28;20523;-50
2022/01/08 08:37:47;;;;;;;3.97;3.20;;;7.50;65.30;;;;;;5107872;28;20273;-53
2022/01/08 08:40:14;;;;;;;3.10;2.20;;;7.60;65.20;;;;;;5109098;28;20219;-50
2022/01/08 08:42:40;;;;;;;2.80;2.50;;;7.40;64.80;;;;;;5099315;28;20792;-50
2022/01/08 08:45:07;;;;;;;2.50;2.00;;;7.20;64.70;;;;;;5101949;28;20448;-51
2022/01/08 08:47:33;;;;;;;1.70;1.60;;;7.20;64.20;;;;;;5111258;28;20427;-50
2022/01/08 08:49:59;;;;;;;3.07;2.00;;;7.20;64.20;;;;;;5110895;28;20449;-50
2022/01/08 08:52:25;;;;;;;2.33;1.60;;;7.20;63.90;;;;;;5111003;28;20847;-51
2022/01/08 08:54:51;;;;;;;2.77;1.60;;;7.20;63.40;;;;;;5109661;28;20448;-50
2022/01/08 08:57:17;;;;;;;2.43;1.43;;;7.10;63.30;;;;;;5111074;28;20503;-51
2022/01/08 08:59:42;;;;;;;2.00;1.37;;;7.00;63.20;;;;;;5109904;28;20452;-50
2022/01/08 09:02:09;;;;;;;1.73;1.60;;;6.90;63.60;;;;;;5090341;28;20249;-51
2022/01/08 09:04:36;;;;;;;2.27;1.50;;;6.70;63.60;;;;;;5095886;28;20191;-51
2022/01/08 09:07:03;;;;;;;2.37;1.53;;;6.70;63.80;;;;;;5098734;28;20429;-50
2022/01/08 09:09:29;;;;;;;3.17;1.20;;;6.80;64.00;;;;;;5092735;28;20440;-50
2022/01/08 09:11:55;;;;;;;2.10;1.73;;;7.00;64.00;;;;;;5100524;28;20444;-50
2022/01/08 09:14:21;;;;;;;3.30;1.90;;;7.10;63.80;;;;;;5093055;28;20257;-51
2022/01/08 09:16:49;;;;;;;4.27;1.53;;;7.30;62.70;;;;;;5103057;28;20190;-51
2022/01/08 09:19:17;;;;;;;1.90;1.50;;;7.10;61.60;;;;;;5109169;28;20440;-51
2022/01/08 09:21:43;;;;;;;2.03;1.40;;;6.70;61.60;;;;;;5096248;28;21484;-50
2022/01/08 09:24:09;;;;;;;1.57;1.27;;;6.60;62.20;;;;;;5104939;28;20475;-51
2022/01/08 09:26:35;;;;;;;1.37;1.27;;;6.60;62.50;;;;;;5102084;28;20538;-51
2022/01/08 09:29:00;;;;;;;1.20;1.10;;;6.70;62.30;;;;;;5110281;28;21218;-51
2022/01/08 09:31:26;;;;;;;5.63;1.70;;;6.80;62.30;;;;;;5096450;28;20194;-51
2022/01/08 09:33:52;;;;;;;1.50;1.40;;;7.00;61.90;;;;;;5102475;28;20649;-53
2022/01/08 09:36:18;;;;;;;2.70;1.40;;;6.70;59.80;;;;;;5106222;28;20651;-51
2022/01/08 09:38:44;;;;;;;4.40;1.20;;;6.80;60.50;;;;;;5090859;28;20702;-50
2022/01/08 09:41:10;;;;;;;1.73;1.20;;;6.90;60.80;;;;;;5091986;28;20967;-51
2022/01/08 09:43:36;;;;;;;2.50;1.40;;;6.90;60.10;;;;;;5100381;28;20444;-54
2022/01/08 09:46:03;;;;;;;2.40;1.53;;;7.00;61.20;;;;;;5104575;28;20192;-54
2022/01/08 09:48:29;;;;;;;4.50;1.60;;;7.10;60.00;;;;;;5088939;28;20800;-53
2022/01/08 09:50:55;;;;;;;3.27;1.50;;;7.20;59.50;;;;;;5106993;28;20448;-54
2022/01/08 09:53:21;;;;;;;3.60;1.87;;;7.00;59.20;;;;;;5109492;28;20442;-54
2022/01/08 09:55:48;;;;;;;3.20;1.63;;;6.90;59.10;;;;;;5109713;28;20194;-53
2022/01/08 09:58:13;;;;;;;1.87;1.70;;;7.10;59.10;;;;;;5091151;28;20437;-54
2022/01/08 10:00:40;;;;;;;5.93;2.73;;;7.00;59.00;;;;;;5104677;28;20490;-54
2022/01/08 10:03:23;;;;;;;2.53;1.43;;;6.90;59.10;;;;;;5109270;28;20233;-52
2022/01/08 10:05:51;;;;;;;2.37;1.50;;;6.80;59.00;;;;;;5093888;28;21152;-52
2022/01/08 10:08:26;;;;;;;1.97;1.80;;;6.90;59.30;;;;;;5105596;28;20566;-54
2022/01/08 10:11:00;;;;;;;3.93;1.83;;;7.00;59.10;;;;;;5092812;28;20973;-54
2022/01/08 10:13:33;;;;;;;2.20;1.83;;;7.10;59.20;;;;;;5098162;28;20429;-54
2022/01/08 10:18:45;;;;;;;6.17;2.33;;;7.50;58.50;;;;;;5090631;28;20471;-51
2022/01/08 10:21:15;;;;;;;3.87;1.70;;;7.40;57.60;;;;;;5109004;28;20498;-54
2022/01/08 10:23:43;;;;;;;4.43;1.90;;;7.40;57.80;;;;;;5114353;28;20429;-54
2022/01/08 10:26:13;;;;;;;2.47;1.40;;;7.40;57.60;;;;;;5111507;28;20443;-54
2022/01/08 10:28:54;;;;;;;5.43;1.57;;;7.40;57.40;;;;;;5097458;28;20477;-55
2022/01/08 10:31:24;;;;;;;2.70;1.67;;;7.70;58.00;;;;;;5097420;28;20444;-55
2022/01/08 10:33:50;;;;;;;4.40;2.60;;;7.90;57.00;;;;;;5097064;28;20434;-54
2022/01/08 10:36:25;;;;;;;4.13;1.53;;;7.90;56.50;;;;;;5102363;28;20477;-51
2022/01/08 10:38:52;;;;;;;2.30;1.83;;;7.80;56.40;;;;;;5107276;28;20654;-53
2022/01/08 10:41:19;;;;;;;2.27;1.70;;;7.70;55.80;;;;;;5107117;28;20522;-54
2022/01/08 10:43:45;;;;;;;5.40;2.03;;;7.90;56.30;;;;;;5108092;28;20436;-54
2022/01/08 10:46:14;;;;;;;5.43;1.90;;;8.20;55.60;;;;;;5102065;28;20478;-51
2022/01/08 10:48:44;;;;;;;1.77;1.47;;;8.50;54.70;;;;;;5105830;28;20440;-54
2022/01/08 10:51:13;;;;;;;3.47;2.13;;;8.50;54.20;;;;;;5112207;28;20472;-52
2022/01/08 10:54:05;;;;;;;2.67;1.70;;;8.90;54.30;;;;;;5101932;28;20507;-50
2022/01/08 10:56:41;;;;;;;4.67;1.90;;;9.00;53.20;;;;;;5099090;28;20483;-52
2022/01/08 10:59:18;;;;;;;4.77;1.40;;;9.00;53.20;;;;;;5106641;28;20471;-51
2022/01/08 11:01:52;;;;;;;2.73;1.70;;;8.80;52.50;;;;;;5105718;28;20998;-52
2022/01/08 11:04:38;;;;;;;2.50;1.20;;;8.80;52.50;;;;;;5099152;28;20438;-52
2022/01/08 11:07:08;;;;;;;3.13;1.60;;;8.90;53.10;;;;;;5102764;28;20440;-53
2022/01/08 11:09:36;;;;;;;4.10;2.00;;;9.10;52.10;;;;;;5104377;28;20449;-55
2022/01/08 11:12:03;;;;;;;5.90;1.60;;;9.10;51.40;;;;;;5099816;28;20566;-53
2022/01/08 11:17:23;;;;;;;7.40;3.03;;;9.00;51.20;;;;;;5109118;28;20477;-53
2022/01/08 11:19:52;;;;;;;3.40;2.47;;;8.70;50.90;;;;;;5103276;28;20446;-54
2022/01/08 11:22:20;;;;;;;2.80;1.37;;;8.40;50.90;;;;;;5105259;28;20535;-51
2022/01/08 11:24:50;;;;;;;6.30;1.80;;;8.50;51.30;;;;;;5108195;28;20857;-54
2022/01/08 11:27:20;;;;;;;4.27;1.83;;;8.40;51.10;;;;;;5107977;28;20919;-52
2022/01/08 11:30:07;;;;;;;3.47;1.80;;;8.70;50.90;;;;;;5107045;28;20468;-54
2022/01/08 11:32:35;;;;;;;4.80;2.03;;;8.80;50.80;;;;;;5106352;28;20449;-51
2022/01/08 11:35:02;;;;;;;4.40;2.97;;;9.10;50.30;;;;;;5102666;28;20559;-51
2022/01/08 11:37:29;;;;;;;5.93;1.50;;;9.40;49.80;;;;;;5103696;28;21416;-51
2022/01/08 11:39:57;;;;;;;2.87;1.40;;;9.20;48.70;;;;;;5103989;28;20533;-52
2022/01/08 11:42:23;;;;;;;2.23;1.80;;;9.00;48.30;;;;;;5106892;28;20435;-51
2022/01/08 11:44:52;;;;;;;3.33;1.83;;;9.10;48.90;;;;;;5102070;28;20433;-51
2022/01/08 11:47:20;;;;;;;6.00;1.90;;;9.30;48.50;;;;;;5107558;28;20241;-52
2022/01/08 11:49:47;;;;;;;3.80;2.00;;;9.40;48.80;;;;;;5097333;28;20577;-51
2022/01/08 11:52:14;;;;;;;3.73;1.73;;;9.10;48.90;;;;;;5107309;28;20444;-55
2022/01/08 11:54:44;;;;;;;2.73;1.50;;;8.80;49.10;;;;;;5105472;28;20563;-51
2022/01/08 11:57:21;;;;;;;5.30;1.53;;;8.90;49.70;;;;;;5103532;28;20440;-53
2022/01/08 11:59:47;;;;;;;3.20;1.33;;;8.80;49.50;;;;;;5106808;28;20452;-54
2022/01/08 12:02:14;;;;;;;4.33;1.50;;;8.60;49.30;;;;;;5110205;28;20448;-53
2022/01/08 12:04:42;;;;;;;2.17;1.50;;;8.50;49.10;;;;;;5100753;28;20197;-52
2022/01/08 12:07:31;;;;;;;3.73;1.53;;;8.90;49.40;;;;;;5093017;28;20437;-52
2022/01/08 12:10:25;;;;;;;5.30;1.90;;;9.00;49.50;;;;;;5101727;28;20468;-53
2022/01/08 12:12:54;;;;;;;2.57;1.13;;;9.10;48.90;;;;;;5099294;28;20819;-55
2022/01/08 12:15:39;;;;;;;1.63;1.30;;;9.00;48.80;;;;;;5104150;28;20437;-51
2022/01/08 12:18:06;;;;;;;2.40;1.03;;;8.80;48.50;;;;;;5095963;28;20444;-51
2022/01/08 12:20:43;;;;;;;3.53;1.33;;;8.80;49.10;;;;;;5107053;28;20574;-55
2022/01/08 12:23:30;;;;;;;3.00;1.47;;;8.60;49.80;;;;;;5110269;28;20835;-51
2022/01/08 12:25:58;;;;;;;3.13;1.40;;;8.40;50.10;;;;;;5104597;28;20455;-51
2022/01/08 12:28:39;;;;;;;2.10;1.33;;;8.30;50.30;;;;;;5097194;28;20546;-51
2022/01/08 12:31:41;;;;;;;4.43;1.37;;;8.20;50.70;;;;;;5100235;28;20601;-54
2022/01/08 12:34:30;;;;;;;2.60;1.40;;;8.50;50.80;;;;;;5102641;28;20812;-54
2022/01/08 12:37:02;;;;;;;2.53;1.87;;;8.60;50.60;;;;;;5105799;28;20449;-52
2022/01/08 12:39:43;;;;;;;5.10;1.53;;;8.60;50.30;;;;;;5102175;28;20455;-51
2022/01/08 12:42:24;;;;;;;2.37;1.50;;;8.40;50.40;;;;;;5109968;28;20494;-52
2022/01/08 12:45:09;;;;;;;3.80;1.57;;;8.50;50.80;;;;;;5100799;28;20451;-52
2022/01/08 12:47:37;;;;;;;2.90;1.40;;;8.50;51.10;;;;;;5101229;28;20460;-50
2022/01/08 12:50:34;;;;;;;3.27;1.60;;;8.70;51.30;;;;;;5104629;28;20455;-52
2022/01/08 12:53:24;;;;;;;1.30;1.13;;;8.70;50.80;;;;;;5096763;28;21336;-51
2022/01/08 12:55:55;;;;;;;5.67;1.53;;;8.70;51.40;;;;;;5090064;28;20585;-52
2022/01/08 12:58:26;;;;;;;2.10;1.13;;;9.10;51.10;;;;;;5097196;28;20452;-54
2022/01/08 13:01:10;;;;;;;2.23;1.30;;;9.20;51.10;;;;;;5095609;28;20567;-54
2022/01/08 13:03:37;;;;;;;2.10;1.30;;;9.50;50.70;;;;;;5091778;28;20447;-54
2022/01/08 13:06:24;;;;;;;2.60;1.50;;;9.70;50.20;;;;;;5097730;28;20967;-54
2022/01/08 13:08:52;;;;;;;1.47;1.10;;;9.90;49.00;;;;;;5100659;28;20480;-54
2022/01/08 13:11:20;;;;;;;1.13;1.03;;;9.90;48.80;;;;;;5101104;28;20741;-54
2022/01/08 13:13:49;;;;;;;4.93;1.70;;;10.00;48.30;;;;;;5102595;28;20466;-53
2022/01/08 13:16:25;;;;;;;1.70;1.50;;;10.30;47.10;;;;;;5101834;28;20478;-54
2022/01/08 13:19:09;;;;;;;2.80;1.30;;;10.40;46.60;;;;;;5097085;28;20432;-53
2022/01/08 13:21:40;;;;;;;1.20;1.10;;;10.10;45.90;;;;;;5095998;28;20495;-53
2022/01/08 13:24:18;;;;;;;3.00;2.53;;;10.00;46.30;;;;;;5101892;28;20491;-50
2022/01/08 13:26:57;;;;;;;2.50;1.20;;;10.10;46.40;;;;;;5101644;28;20447;-54